sensor_id;sensor_type;location;lat;lon;timestamp;pressure;altitude;pressure_sealevel;temperature;humidity
28628;BME280;15815;46.760;19.604;2023-04-03T00:01:16;100125.34;;;8.66;85.67
28628;BME280;15815;46.760;19.604;2023-04-03T00:03:42;100123.72;;;8.62;85.59
28628;BME280;15815;46.760;19.604;2023-04-03T00:06:11;100143.75;;;8.67;84.71
28628;BME280;15815;46.760;19.604;2023-04-03T00:08:38;100134.91;;;8.55;84.25
28628;BME280;15815;46.760;19.604;2023-04-03T00:11:05;100143.31;;;8.51;84.14
28628;BME280;15815;46.760;19.604;2023-04-03T00:13:31;100142.47;;;8.44;83.12
28628;BME280;15815;46.760;19.604;2023-04-03T00:15:57;100132.00;;;8.30;82.76
28628;BME280;15815;46.760;19.604;2023-04-03T00:18:23;100144.38;;;8.25;83.86
28628;BME280;15815;46.760;19.604;2023-04-03T00:20:49;100131.53;;;8.17;84.54
28628;BME280;15815;46.760;19.604;2023-04-03T00:23:14;100135.50;;;8.16;84.32
28628;BME280;15815;46.760;19.604;2023-04-03T00:25:40;100158.72;;;8.20;84.37
28628;BME280;15815;46.760;19.604;2023-04-03T00:28:09;100160.72;;;8.20;84.67
28628;BME280;15815;46.760;19.604;2023-04-03T00:30:35;100144.25;;;8.04;84.44
28628;BME280;15815;46.760;19.604;2023-04-03T00:33:01;100150.66;;;8.01;83.96
28628;BME280;15815;46.760;19.604;2023-04-03T00:35:27;100169.09;;;8.16;84.65
28628;BME280;15815;46.760;19.604;2023-04-03T00:37:54;100147.03;;;8.00;85.30
28628;BME280;15815;46.760;19.604;2023-04-03T00:40:21;100167.13;;;8.20;84.64
28628;BME280;15815;46.760;19.604;2023-04-03T00:42:48;100171.56;;;8.25;85.04
28628;BME280;15815;46.760;19.604;2023-04-03T00:45:34;100169.94;;;8.20;85.48
28628;BME280;15815;46.760;19.604;2023-04-03T00:48:03;100160.31;;;8.18;85.74
28628;BME280;15815;46.760;19.604;2023-04-03T00:50:29;100166.44;;;8.38;85.63
28628;BME280;15815;46.760;19.604;2023-04-03T00:52:56;100167.59;;;8.26;85.69
28628;BME280;15815;46.760;19.604;2023-04-03T00:55:25;100166.78;;;8.25;85.96
28628;BME280;15815;46.760;19.604;2023-04-03T00:57:52;100166.38;;;8.23;85.43
28628;BME280;15815;46.760;19.604;2023-04-03T01:00:22;100165.94;;;8.21;85.13
28628;BME280;15815;46.760;19.604;2023-04-03T01:02:49;100166.72;;;8.18;84.38
28628;BME280;15815;46.760;19.604;2023-04-03T01:05:16;100180.69;;;8.11;85.39
28628;BME280;15815;46.760;19.604;2023-04-03T01:07:43;100183.50;;;8.15;85.12
28628;BME280;15815;46.760;19.604;2023-04-03T01:10:13;100183.50;;;8.15;85.56
28628;BME280;15815;46.760;19.604;2023-04-03T01:12:42;100190.75;;;8.23;86.00
28628;BME280;15815;46.760;19.604;2023-04-03T01:17:43;100193.13;;;8.21;85.99
28628;BME280;15815;46.760;19.604;2023-04-03T01:25:36;100190.72;;;8.19;86.51
28628;BME280;15815;46.760;19.604;2023-04-03T01:28:04;100191.09;;;8.14;86.35
28628;BME280;15815;46.760;19.604;2023-04-03T01:30:32;100189.88;;;8.12;86.43
28628;BME280;15815;46.760;19.604;2023-04-03T01:32:58;100177.06;;;8.03;86.26
28628;BME280;15815;46.760;19.604;2023-04-03T01:35:23;100182.66;;;8.03;87.06
28628;BME280;15815;46.760;19.604;2023-04-03T01:37:49;100185.13;;;8.19;86.30
28628;BME280;15815;46.760;19.604;2023-04-03T01:40:15;100181.50;;;8.15;86.68
28628;BME280;15815;46.760;19.604;2023-04-03T01:42:41;100165.47;;;8.09;86.92
28628;BME280;15815;46.760;19.604;2023-04-03T01:45:07;100189.97;;;8.22;86.73
28628;BME280;15815;46.760;19.604;2023-04-03T01:47:33;100179.53;;;8.19;86.90
28628;BME280;15815;46.760;19.604;2023-04-03T01:49:59;100173.47;;;8.10;87.20
28628;BME280;15815;46.760;19.604;2023-04-03T01:52:24;100181.13;;;8.20;88.17
28628;BME280;15815;46.760;19.604;2023-04-03T01:54:50;100153.03;;;7.99;88.19
28628;BME280;15815;46.760;19.604;2023-04-03T01:57:17;100193.53;;;8.19;88.24
28628;BME280;15815;46.760;19.604;2023-04-03T01:59:43;100162.28;;;8.10;87.68
28628;BME280;15815;46.760;19.604;2023-04-03T02:02:09;100194.72;;;8.18;89.49
28628;BME280;15815;46.760;19.604;2023-04-03T02:04:34;100193.13;;;8.21;89.77
28628;BME280;15815;46.760;19.604;2023-04-03T02:07:00;100196.00;;;8.31;88.34
28628;BME280;15815;46.760;19.604;2023-04-03T02:09:25;100191.19;;;8.28;88.61
28628;BME280;15815;46.760;19.604;2023-04-03T02:11:51;100212.03;;;8.34;89.82
28628;BME280;15815;46.760;19.604;2023-04-03T02:14:17;100214.06;;;8.38;89.73
28628;BME280;15815;46.760;19.604;2023-04-03T02:16:42;100204.41;;;8.31;89.00
28628;BME280;15815;46.760;19.604;2023-04-03T02:19:09;100214.88;;;8.42;89.08
28628;BME280;15815;46.760;19.604;2023-04-03T02:21:35;100199.19;;;8.30;88.59
28628;BME280;15815;46.760;19.604;2023-04-03T02:24:01;100195.19;;;8.27;89.34
28628;BME280;15815;46.760;19.604;2023-04-03T02:26:27;100202.78;;;8.27;89.05
28628;BME280;15815;46.760;19.604;2023-04-03T02:28:53;100199.53;;;8.21;90.79
28628;BME280;15815;46.760;19.604;2023-04-03T02:31:22;100218.06;;;8.36;90.52
28628;BME280;15815;46.760;19.604;2023-04-03T02:33:48;100211.28;;;8.41;89.31
28628;BME280;15815;46.760;19.604;2023-04-03T02:36:14;100219.69;;;8.45;89.59
28628;BME280;15815;46.760;19.604;2023-04-03T02:38:40;100197.28;;;8.41;88.82
28628;BME280;15815;46.760;19.604;2023-04-03T02:41:08;100214.56;;;8.54;88.85
28628;BME280;15815;46.760;19.604;2023-04-03T02:43:34;100206.06;;;8.40;90.02
28628;BME280;15815;46.760;19.604;2023-04-03T02:46:00;100212.50;;;8.44;89.85
28628;BME280;15815;46.760;19.604;2023-04-03T02:48:27;100200.06;;;8.38;89.20
28628;BME280;15815;46.760;19.604;2023-04-03T02:50:52;100206.13;;;8.50;88.39
28628;BME280;15815;46.760;19.604;2023-04-03T02:53:19;100207.75;;;8.55;88.52
28628;BME280;15815;46.760;19.604;2023-04-03T02:55:45;100195.66;;;8.36;89.53
28628;BME280;15815;46.760;19.604;2023-04-03T02:58:11;100218.50;;;8.46;89.56
28628;BME280;15815;46.760;19.604;2023-04-03T03:00:38;100194.06;;;8.35;88.89
28628;BME280;15815;46.760;19.604;2023-04-03T03:03:04;100213.69;;;8.46;89.56
28628;BME280;15815;46.760;19.604;2023-04-03T03:05:30;100217.69;;;8.42;89.67
28628;BME280;15815;46.760;19.604;2023-04-03T03:07:57;100202.06;;;8.37;89.89
28628;BME280;15815;46.760;19.604;2023-04-03T03:10:23;100207.59;;;8.30;90.87
28628;BME280;15815;46.760;19.604;2023-04-03T03:12:49;100218.81;;;8.30;90.41
28628;BME280;15815;46.760;19.604;2023-04-03T03:15:14;100213.59;;;8.32;89.96
28628;BME280;15815;46.760;19.604;2023-04-03T03:17:40;100201.56;;;8.24;89.46
28628;BME280;15815;46.760;19.604;2023-04-03T03:20:06;100223.19;;;8.31;89.68
28628;BME280;15815;46.760;19.604;2023-04-03T03:22:35;100216.78;;;8.23;90.00
28628;BME280;15815;46.760;19.604;2023-04-03T03:25:00;100187.78;;;7.94;89.95
28628;BME280;15815;46.760;19.604;2023-04-03T03:27:26;100217.91;;;8.15;90.06
28628;BME280;15815;46.760;19.604;2023-04-03T03:29:52;100203.88;;;8.12;89.48
28628;BME280;15815;46.760;19.604;2023-04-03T03:32:17;100227.19;;;8.26;89.55
28628;BME280;15815;46.760;19.604;2023-04-03T03:34:43;100199.44;;;8.03;89.87
28628;BME280;15815;46.760;19.604;2023-04-03T03:37:13;100228.66;;;8.10;90.80
28628;BME280;15815;46.760;19.604;2023-04-03T03:39:38;100232.31;;;8.17;91.06
28628;BME280;15815;46.760;19.604;2023-04-03T03:42:07;100213.03;;;8.01;91.42
28628;BME280;15815;46.760;19.604;2023-04-03T03:44:32;100215.81;;;7.98;91.69
28628;BME280;15815;46.760;19.604;2023-04-03T03:46:58;100225.81;;;7.99;92.09
28628;BME280;15815;46.760;19.604;2023-04-03T03:49:26;100229.22;;;7.74;90.32
28628;BME280;15815;46.760;19.604;2023-04-03T03:51:53;100227.91;;;7.65;90.08
28628;BME280;15815;46.760;19.604;2023-04-03T03:54:18;100221.88;;;7.59;89.08
28628;BME280;15815;46.760;19.604;2023-04-03T03:56:44;100197.38;;;7.42;89.53
28628;BME280;15815;46.760;19.604;2023-04-03T03:59:11;100221.41;;;7.50;88.97
28628;BME280;15815;46.760;19.604;2023-04-03T04:01:37;100222.97;;;7.44;88.93
28628;BME280;15815;46.760;19.604;2023-04-03T04:04:02;100205.25;;;7.33;88.49
28628;BME280;15815;46.760;19.604;2023-04-03T04:06:28;100202.84;;;7.31;88.27
28628;BME280;15815;46.760;19.604;2023-04-03T04:08:55;100215.75;;;7.43;88.16
28628;BME280;15815;46.760;19.604;2023-04-03T04:11:20;100200.06;;;7.31;87.27
28628;BME280;15815;46.760;19.604;2023-04-03T04:13:46;100220.59;;;7.46;87.40
28628;BME280;15815;46.760;19.604;2023-04-03T04:16:13;100225.47;;;7.56;87.25
28628;BME280;15815;46.760;19.604;2023-04-03T04:18:39;100222.59;;;7.49;86.85
28628;BME280;15815;46.760;19.604;2023-04-03T04:21:04;100232.53;;;7.43;86.32
28628;BME280;15815;46.760;19.604;2023-04-03T04:23:30;100232.47;;;7.39;86.26
28628;BME280;15815;46.760;19.604;2023-04-03T04:25:56;100221.28;;;7.36;85.79
28628;BME280;15815;46.760;19.604;2023-04-03T04:31:29;100227.78;;;7.47;86.98
28628;BME280;15815;46.760;19.604;2023-04-03T04:33:55;100232.47;;;7.39;86.47
28628;BME280;15815;46.760;19.604;2023-04-03T04:36:20;100240.97;;;7.47;86.54
28628;BME280;15815;46.760;19.604;2023-04-03T04:38:46;100235.88;;;7.59;86.34
28628;BME280;15815;46.760;19.604;2023-04-03T04:41:11;100244.69;;;7.61;85.79
28628;BME280;15815;46.760;19.604;2023-04-03T04:43:40;100243.44;;;7.55;85.29
28628;BME280;15815;46.760;19.604;2023-04-03T04:46:08;100244.97;;;7.49;85.62
28628;BME280;15815;46.760;19.604;2023-04-03T04:48:35;100222.34;;;7.21;85.34
28628;BME280;15815;46.760;19.604;2023-04-03T04:51:01;100229.28;;;7.37;85.32
28628;BME280;15815;46.760;19.604;2023-04-03T04:53:27;100250.97;;;7.48;84.58
28628;BME280;15815;46.760;19.604;2023-04-03T04:55:52;100252.53;;;7.45;84.96
28628;BME280;15815;46.760;19.604;2023-04-03T04:58:19;100250.50;;;7.42;84.67
28628;BME280;15815;46.760;19.604;2023-04-03T05:00:45;100253.22;;;7.35;84.62
28628;BME280;15815;46.760;19.604;2023-04-03T05:03:12;100266.00;;;7.36;83.86
28628;BME280;15815;46.760;19.604;2023-04-03T05:05:37;100253.53;;;7.26;83.58
28628;BME280;15815;46.760;19.604;2023-04-03T05:08:04;100263.88;;;7.22;84.08
28628;BME280;15815;46.760;19.604;2023-04-03T05:10:29;100271.94;;;7.31;83.78
28628;BME280;15815;46.760;19.604;2023-04-03T05:12:58;100257.19;;;7.34;84.38
28628;BME280;15815;46.760;19.604;2023-04-03T05:15:24;100279.22;;;7.39;83.34
28628;BME280;15815;46.760;19.604;2023-04-03T05:17:49;100266.44;;;7.38;84.12
28628;BME280;15815;46.760;19.604;2023-04-03T05:20:15;100255.69;;;7.40;83.95
28628;BME280;15815;46.760;19.604;2023-04-03T05:22:42;100254.28;;;7.20;83.73
28628;BME280;15815;46.760;19.604;2023-04-03T05:25:08;100266.00;;;7.36;84.20
28628;BME280;15815;46.760;19.604;2023-04-03T05:27:34;100260.41;;;7.36;84.65
28628;BME280;15815;46.760;19.604;2023-04-03T05:29:59;100280.28;;;7.64;83.66
28628;BME280;15815;46.760;19.604;2023-04-03T05:32:25;100277.78;;;7.56;83.26
28628;BME280;15815;46.760;19.604;2023-04-03T05:34:51;100286.34;;;7.70;83.22
28628;BME280;15815;46.760;19.604;2023-04-03T05:37:17;100277.78;;;7.52;82.93
28628;BME280;15815;46.760;19.604;2023-04-03T05:39:42;100267.75;;;7.48;82.37
28628;BME280;15815;46.760;19.604;2023-04-03T05:42:08;100277.34;;;7.50;82.07
28628;BME280;15815;46.760;19.604;2023-04-03T05:44:34;100274.44;;;7.39;82.65
28628;BME280;15815;46.760;19.604;2023-04-03T05:46:59;100287.38;;;7.55;82.75
28628;BME280;15815;46.760;19.604;2023-04-03T05:49:26;100297.41;;;7.59;83.42
28628;BME280;15815;46.760;19.604;2023-04-03T05:51:52;100292.31;;;7.68;83.38
28628;BME280;15815;46.760;19.604;2023-04-03T05:54:20;100265.81;;;7.55;81.96
28628;BME280;15815;46.760;19.604;2023-04-03T05:56:50;100302.84;;;7.86;82.34
28628;BME280;15815;46.760;19.604;2023-04-03T05:59:17;100300.81;;;7.79;81.83
28628;BME280;15815;46.760;19.604;2023-04-03T06:01:43;100294.88;;;7.88;81.45
28628;BME280;15815;46.760;19.604;2023-04-03T06:04:08;100300.22;;;8.07;81.78
28628;BME280;15815;46.760;19.604;2023-04-03T06:06:50;100280.97;;;7.98;80.69
28628;BME280;15815;46.760;19.604;2023-04-03T06:09:16;100286.16;;;7.96;80.11
28628;BME280;15815;46.760;19.604;2023-04-03T06:11:42;100297.47;;;8.11;79.66
28628;BME280;15815;46.760;19.604;2023-04-03T06:14:09;100309.16;;;8.23;79.46
28628;BME280;15815;46.760;19.604;2023-04-03T06:16:34;100293.47;;;8.12;80.42
28628;BME280;15815;46.760;19.604;2023-04-03T06:19:00;100308.38;;;8.26;80.02
28628;BME280;15815;46.760;19.604;2023-04-03T06:21:25;100309.16;;;8.23;78.79
28628;BME280;15815;46.760;19.604;2023-04-03T06:23:52;100311.53;;;8.21;79.46
28628;BME280;15815;46.760;19.604;2023-04-03T06:26:18;100322.81;;;8.28;78.58
28628;BME280;15815;46.760;19.604;2023-04-03T06:28:44;100314.69;;;8.16;78.50
28628;BME280;15815;46.760;19.604;2023-04-03T06:31:10;100323.28;;;8.38;78.93
28628;BME280;15815;46.760;19.604;2023-04-03T06:33:39;100306.00;;;8.28;78.68
28628;BME280;15815;46.760;19.604;2023-04-03T06:36:05;100320.25;;;8.64;79.49
28628;BME280;15815;46.760;19.604;2023-04-03T06:38:32;100312.59;;;8.54;79.03
28628;BME280;15815;46.760;19.604;2023-04-03T06:40:57;100296.59;;;8.54;78.69
28628;BME280;15815;46.760;19.604;2023-04-03T06:43:23;100321.56;;;8.81;79.62
28628;BME280;15815;46.760;19.604;2023-04-03T06:45:48;100319.91;;;8.73;78.79
28628;BME280;15815;46.760;19.604;2023-04-03T06:48:14;100326.84;;;8.96;79.18
28628;BME280;15815;46.760;19.604;2023-04-03T06:50:42;100314.81;;;8.99;77.03
28628;BME280;15815;46.760;19.604;2023-04-03T06:53:08;100333.72;;;9.10;77.22
28628;BME280;15815;46.760;19.604;2023-04-03T06:55:35;100329.59;;;8.86;76.84
28628;BME280;15815;46.760;19.604;2023-04-03T06:58:00;100324.09;;;9.07;76.26
28628;BME280;15815;46.760;19.604;2023-04-03T07:00:26;100331.41;;;9.40;76.39
28628;BME280;15815;46.760;19.604;2023-04-03T07:02:51;100308.19;;;9.43;75.47
28628;BME280;15815;46.760;19.604;2023-04-03T07:05:17;100327.09;;;9.78;76.25
28628;BME280;15815;46.760;19.604;2023-04-03T07:07:42;100346.78;;;10.17;76.36
28628;BME280;15815;46.760;19.604;2023-04-03T07:10:09;100333.94;;;10.20;74.86
28628;BME280;15815;46.760;19.604;2023-04-03T07:12:35;100308.59;;;10.73;75.38
28628;BME280;15815;46.760;19.604;2023-04-03T07:15:01;100339.78;;;11.18;74.22
28628;BME280;15815;46.760;19.604;2023-04-03T07:17:26;100342.44;;;11.46;73.50
28628;BME280;15815;46.760;19.604;2023-04-03T07:19:52;100350.34;;;11.73;73.47
28628;BME280;15815;46.760;19.604;2023-04-03T07:22:18;100345.94;;;11.68;69.22
28628;BME280;15815;46.760;19.604;2023-04-03T07:24:47;100344.81;;;11.59;72.29
28628;BME280;15815;46.760;19.604;2023-04-03T07:27:12;100328.59;;;11.84;70.52
28628;BME280;15815;46.760;19.604;2023-04-03T07:29:38;100355.72;;;12.16;73.02
28628;BME280;15815;46.760;19.604;2023-04-03T07:32:04;100343.38;;;11.95;71.68
28628;BME280;15815;46.760;19.604;2023-04-03T07:34:30;100332.81;;;11.44;70.46
28628;BME280;15815;46.760;19.604;2023-04-03T07:36:56;100328.34;;;11.50;70.68
28628;BME280;15815;46.760;19.604;2023-04-03T07:39:21;100329.91;;;11.62;69.29
28628;BME280;15815;46.760;19.604;2023-04-03T07:41:51;100331.53;;;11.59;68.67
28628;BME280;15815;46.760;19.604;2023-04-03T07:44:17;100322.50;;;11.23;68.72
28628;BME280;15815;46.760;19.604;2023-04-03T07:46:44;100342.63;;;11.11;69.00
28628;BME280;15815;46.760;19.604;2023-04-03T07:49:09;100369.94;;;11.14;66.29
28628;BME280;15815;46.760;19.604;2023-04-03T07:51:35;100368.69;;;11.29;68.37
28628;BME280;15815;46.760;19.604;2023-04-03T07:54:00;100348.63;;;11.17;69.37
28628;BME280;15815;46.760;19.604;2023-04-03T07:56:26;100357.84;;;11.21;69.68
28628;BME280;15815;46.760;19.604;2023-04-03T07:58:51;100366.19;;;11.42;69.98
28628;BME280;15815;46.760;19.604;2023-04-03T08:01:20;100360.19;;;11.40;69.16
28628;BME280;15815;46.760;19.604;2023-04-03T08:03:53;100367.00;;;11.42;68.29
28628;BME280;15815;46.760;19.604;2023-04-03T08:06:18;100373.56;;;11.11;68.54
28628;BME280;15815;46.760;19.604;2023-04-03T08:08:44;100346.69;;;10.89;70.72
28628;BME280;15815;46.760;19.604;2023-04-03T08:11:11;100376.34;;;11.14;68.72
28628;BME280;15815;46.760;19.604;2023-04-03T08:13:39;100369.94;;;11.10;66.03
28628;BME280;15815;46.760;19.604;2023-04-03T08:16:15;100362.69;;;11.24;68.32
28628;BME280;15815;46.760;19.604;2023-04-03T08:18:41;100371.47;;;11.36;66.61
28628;BME280;15815;46.760;19.604;2023-04-03T08:21:09;100362.59;;;11.38;65.89
28628;BME280;15815;46.760;19.604;2023-04-03T08:23:35;100381.03;;;11.57;66.36
28628;BME280;15815;46.760;19.604;2023-04-03T08:26:13;100376.56;;;11.63;65.01
28628;BME280;15815;46.760;19.604;2023-04-03T08:28:39;100374.50;;;11.70;65.76
28628;BME280;15815;46.760;19.604;2023-04-03T08:31:06;100369.00;;;11.45;66.73
28628;BME280;15815;46.760;19.604;2023-04-03T08:33:33;100381.81;;;11.57;67.65
28628;BME280;15815;46.760;19.604;2023-04-03T08:35:59;100368.22;;;11.41;67.55
28628;BME280;15815;46.760;19.604;2023-04-03T08:38:24;100387.47;;;11.50;67.27
28628;BME280;15815;46.760;19.604;2023-04-03T08:44:00;100401.69;;;11.14;65.43
28628;BME280;15815;46.760;19.604;2023-04-03T08:46:46;100406.47;;;11.21;66.64
28628;BME280;15815;46.760;19.604;2023-04-03T08:51:57;100390.03;;;11.09;64.35
28628;BME280;15815;46.760;19.604;2023-04-03T08:54:37;100390.41;;;11.25;63.75
28628;BME280;15815;46.760;19.604;2023-04-03T08:57:06;100391.94;;;11.40;64.71
28628;BME280;15815;46.760;19.604;2023-04-03T08:59:34;100385.94;;;11.35;64.35
28628;BME280;15815;46.760;19.604;2023-04-03T09:02:03;100381.94;;;11.32;63.33
28628;BME280;15815;46.760;19.604;2023-04-03T09:04:31;100379.94;;;11.22;62.35
28628;BME280;15815;46.760;19.604;2023-04-03T09:07:05;100373.53;;;11.14;63.12
28628;BME280;15815;46.760;19.604;2023-04-03T09:09:36;100377.44;;;11.45;62.92
28628;BME280;15815;46.760;19.604;2023-04-03T09:14:36;100404.66;;;11.70;62.06
28628;BME280;15815;46.760;19.604;2023-04-03T09:22:44;100396.88;;;11.99;61.24
28628;BME280;15815;46.760;19.604;2023-04-03T09:25:15;100397.66;;;12.03;58.78
28628;BME280;15815;46.760;19.604;2023-04-03T09:27:46;100398.06;;;12.09;58.10
28628;BME280;15815;46.760;19.604;2023-04-03T09:30:22;100404.59;;;12.47;58.85
28628;BME280;15815;46.760;19.604;2023-04-03T09:32:51;100395.09;;;12.26;56.95
28628;BME280;15815;46.760;19.604;2023-04-03T09:35:36;100412.53;;;12.62;56.82
28628;BME280;15815;46.760;19.604;2023-04-03T09:38:16;100405.31;;;12.99;56.51
28628;BME280;15815;46.760;19.604;2023-04-03T09:40:44;100410.53;;;13.00;57.49
28628;BME280;15815;46.760;19.604;2023-04-03T09:45:43;100404.94;;;12.97;57.98
28628;BME280;15815;46.760;19.604;2023-04-03T09:53:35;100410.34;;;13.86;57.28
28628;BME280;15815;46.760;19.604;2023-04-03T09:56:04;100397.97;;;14.31;57.83
28628;BME280;15815;46.760;19.604;2023-04-03T09:58:33;100407.84;;;14.46;55.94
28628;BME280;15815;46.760;19.604;2023-04-03T10:01:01;100407.94;;;14.66;55.55
28628;BME280;15815;46.760;19.604;2023-04-03T10:03:34;100405.78;;;15.17;57.66
28628;BME280;15815;46.760;19.604;2023-04-03T10:06:00;100389.69;;;15.13;60.30
28628;BME280;15815;46.760;19.604;2023-04-03T10:08:28;100396.41;;;15.00;57.78
28628;BME280;15815;46.760;19.604;2023-04-03T10:13:32;100388.53;;;15.70;56.07
28628;BME280;15815;46.760;19.604;2023-04-03T10:16:08;100388.97;;;17.60;55.48
28628;BME280;15815;46.760;19.604;2023-04-03T10:21:33;100379.59;;;18.14;50.68
28628;BME280;15815;46.760;19.604;2023-04-03T10:24:20;100370.75;;;18.12;53.72
28628;BME280;15815;46.760;19.604;2023-04-03T10:33:18;100374.13;;;21.65;46.49
28628;BME280;15815;46.760;19.604;2023-04-03T10:46:27;100371.03;;;17.35;44.45
28628;BME280;15815;46.760;19.604;2023-04-03T10:49:28;100362.84;;;16.62;44.70
28628;BME280;15815;46.760;19.604;2023-04-03T10:51:48;100356.72;;;15.99;45.16
28628;BME280;15815;46.760;19.604;2023-04-03T10:57:18;100361.22;;;15.60;47.35
28628;BME280;15815;46.760;19.604;2023-04-03T10:59:51;100352.81;;;15.37;47.34
28628;BME280;15815;46.760;19.604;2023-04-03T11:02:36;100360.47;;;14.97;47.11
28628;BME280;15815;46.760;19.604;2023-04-03T11:05:20;100352.50;;;14.92;46.05
28628;BME280;15815;46.760;19.604;2023-04-03T11:07:51;100345.81;;;14.82;45.57
28628;BME280;15815;46.760;19.604;2023-04-03T11:10:24;100339.94;;;14.93;45.37
28628;BME280;15815;46.760;19.604;2023-04-03T11:13:08;100342.63;;;14.80;46.68
28628;BME280;15815;46.760;19.604;2023-04-03T11:15:36;100337.97;;;15.49;46.45
28628;BME280;15815;46.760;19.604;2023-04-03T11:18:10;100338.44;;;16.65;45.28
28628;BME280;15815;46.760;19.604;2023-04-03T11:20:42;100303.28;;;15.05;46.22
28628;BME280;15815;46.760;19.604;2023-04-03T11:23:20;100318.25;;;14.39;46.58
28628;BME280;15815;46.760;19.604;2023-04-03T11:25:50;100332.09;;;14.34;47.95
28628;BME280;15815;46.760;19.604;2023-04-03T11:28:17;100325.50;;;14.17;47.43
28628;BME280;15815;46.760;19.604;2023-04-03T11:36:29;100330.16;;;14.04;47.12
28628;BME280;15815;46.760;19.604;2023-04-03T11:38:59;100321.09;;;13.62;49.16
28628;BME280;15815;46.760;19.604;2023-04-03T11:41:31;100333.25;;;13.59;49.39
28628;BME280;15815;46.760;19.604;2023-04-03T11:44:02;100332.44;;;13.28;48.37
28628;BME280;15815;46.760;19.604;2023-04-03T11:46:57;100326.56;;;13.46;48.71
28628;BME280;15815;46.760;19.604;2023-04-03T11:49:56;100324.03;;;13.55;48.26
28628;BME280;15815;46.760;19.604;2023-04-03T12:19:01;100304.59;;;13.30;47.41
28628;BME280;15815;46.760;19.604;2023-04-03T12:24:00;100307.97;;;13.14;49.52
28628;BME280;15815;46.760;19.604;2023-04-03T12:26:29;100291.16;;;13.07;50.14
28628;BME280;15815;46.760;19.604;2023-04-03T12:28:55;100294.56;;;12.91;48.80
28628;BME280;15815;46.760;19.604;2023-04-03T12:31:32;100296.75;;;12.77;49.04
28628;BME280;15815;46.760;19.604;2023-04-03T12:34:31;100286.78;;;12.68;49.67
28628;BME280;15815;46.760;19.604;2023-04-03T12:37:07;100298.06;;;12.68;50.18
28628;BME280;15815;46.760;19.604;2023-04-03T12:42:17;100298.06;;;12.68;51.61
28628;BME280;15815;46.760;19.604;2023-04-03T12:45:19;100291.94;;;12.74;50.05
28628;BME280;15815;46.760;19.604;2023-04-03T12:47:43;100286.78;;;12.68;51.76
28628;BME280;15815;46.760;19.604;2023-04-03T12:50:30;100298.94;;;12.58;50.18
28628;BME280;15815;46.760;19.604;2023-04-03T12:53:06;100294.91;;;12.59;50.49
28628;BME280;15815;46.760;19.604;2023-04-03T12:55:36;100283.41;;;12.81;50.34
28628;BME280;15815;46.760;19.604;2023-04-03T12:58:22;100286.97;;;12.85;47.34
28628;BME280;15815;46.760;19.604;2023-04-03T13:00:59;100292.97;;;12.90;49.29
28628;BME280;15815;46.760;19.604;2023-04-03T13:03:26;100289.06;;;13.11;49.10
28628;BME280;15815;46.760;19.604;2023-04-03T13:05:56;100289.34;;;13.24;49.61
28628;BME280;15815;46.760;19.604;2023-04-03T13:08:23;100268.91;;;13.13;47.74
28628;BME280;15815;46.760;19.604;2023-04-03T13:11:10;100283.19;;;13.33;47.31
28628;BME280;15815;46.760;19.604;2023-04-03T13:13:37;100260.06;;;13.41;49.88
28628;BME280;15815;46.760;19.604;2023-04-03T13:16:10;100273.38;;;13.68;49.56
28628;BME280;15815;46.760;19.604;2023-04-03T13:18:37;100282.50;;;13.52;49.43
28628;BME280;15815;46.760;19.604;2023-04-03T13:21:16;100289.03;;;13.49;50.18
28628;BME280;15815;46.760;19.604;2023-04-03T13:23:47;100285.72;;;13.54;48.03
28628;BME280;15815;46.760;19.604;2023-04-03T13:26:18;100273.72;;;13.46;48.49
28628;BME280;15815;46.760;19.604;2023-04-03T13:28:46;100278.22;;;13.71;51.94
28628;BME280;15815;46.760;19.604;2023-04-03T13:33:37;100282.41;;;13.59;50.10
28628;BME280;15815;46.760;19.604;2023-04-03T13:36:07;100272.44;;;13.51;51.44
28628;BME280;15815;46.760;19.604;2023-04-03T13:38:33;100253.13;;;13.49;50.87
28628;BME280;15815;46.760;19.604;2023-04-03T13:41:03;100254.28;;;13.52;51.43
28628;BME280;15815;46.760;19.604;2023-04-03T13:43:35;100266.91;;;13.44;50.68
28628;BME280;15815;46.760;19.604;2023-04-03T13:53:34;100248.41;;;13.66;49.32
28628;BME280;15815;46.760;19.604;2023-04-03T13:56:09;100233.41;;;13.46;51.28
28628;BME280;15815;46.760;19.604;2023-04-03T13:58:56;100249.19;;;13.67;49.69
28628;BME280;15815;46.760;19.604;2023-04-03T14:01:24;100239.94;;;13.66;51.56
28628;BME280;15815;46.760;19.604;2023-04-03T14:04:01;100235.06;;;13.43;49.12
28628;BME280;15815;46.760;19.604;2023-04-03T14:06:28;100227.94;;;13.58;49.89
28628;BME280;15815;46.760;19.604;2023-04-03T14:08:53;100223.16;;;13.28;50.59
28628;BME280;15815;46.760;19.604;2023-04-03T14:11:26;100222.41;;;13.24;50.44
28628;BME280;15815;46.760;19.604;2023-04-03T14:13:52;100225.19;;;12.97;50.60
28628;BME280;15815;46.760;19.604;2023-04-03T14:16:21;100218.16;;;12.79;48.77
28628;BME280;15815;46.760;19.604;2023-04-03T14:18:49;100216.56;;;12.78;49.11
28628;BME280;15815;46.760;19.604;2023-04-03T14:21:21;100227.47;;;12.42;49.18
28628;BME280;15815;46.760;19.604;2023-04-03T14:23:48;100228.63;;;12.44;50.29
28628;BME280;15815;46.760;19.604;2023-04-03T14:26:20;100208.50;;;12.08;49.76
28628;BME280;15815;46.760;19.604;2023-04-03T14:28:49;100232.28;;;12.00;49.78
28628;BME280;15815;46.760;19.604;2023-04-03T14:31:15;100234.50;;;11.78;50.67
28628;BME280;15815;46.760;19.604;2023-04-03T14:33:42;100236.13;;;11.72;50.85
28628;BME280;15815;46.760;19.604;2023-04-03T14:36:19;100233.81;;;11.60;51.46
28628;BME280;15815;46.760;19.604;2023-04-03T14:38:46;100243.13;;;11.53;51.36